Time;durP1;ratioP1;P1;durP2;ratioP2;P2;SDS_P1;SDS_P2;PMS_P1;PMS_P2;Temp;Humidity;BMP_temperature;BMP_pressure;BME280_temperature;BME280_humidity;BME280_pressure;Samples;Min_cycle;Max_cycle;Signal;HPM_P1;HPM_P2
2021/05/05 00:01:59;;;;;;;7.50;2.97;;;;;;;;;;143745;569;46020;-82
2021/05/05 00:04:27;;;;;;;7.05;2.75;;;;;;;;;;143747;597;46010;-82
2021/05/05 00:06:58;;;;;;;5.95;2.67;;;;;;;;;;143744;578;46014;-83
2021/05/05 00:09:25;;;;;;;12.85;3.05;;;;;;;;;;143746;594;46020;-83
2021/05/05 00:11:52;;;;;;;7.95;2.85;;;;;;;;;;143747;565;46021;-82
2021/05/05 00:14:22;;;;;;;7.32;2.20;;;;;;;;;;143749;611;46010;-82
2021/05/05 00:16:48;;;;;;;5.75;2.87;;;;;;;;;;143744;569;47022;-82
2021/05/05 00:19:17;;;;;;;7.07;2.20;;;;;;;;;;143746;660;46010;-83
2021/05/05 00:21:57;;;;;;;6.32;2.20;;;;;;;;;;143746;566;46021;-83
2021/05/05 00:24:35;;;;;;;8.13;2.00;;;;;;;;;;143748;569;47018;-82
2021/05/05 00:27:27;;;;;;;19.70;3.47;;;;;;;;;;143747;607;46022;-84
2021/05/05 00:30:05;;;;;;;3.63;2.23;;;;;;;;;;143746;565;46010;-83
2021/05/05 00:32:31;;;;;;;3.45;2.25;;;;;;;;;;143747;593;46020;-83
2021/05/05 00:35:10;;;;;;;10.27;2.70;;;;;;;;;;143749;570;46018;-82
2021/05/05 00:37:41;;;;;;;4.32;2.42;;;;;;;;;;143747;609;46022;-83
2021/05/05 00:40:17;;;;;;;5.57;2.12;;;;;;;;;;143745;579;46010;-82
2021/05/05 00:42:44;;;;;;;10.25;2.37;;;;;;;;;;143742;602;46012;-82
2021/05/05 00:45:14;;;;;;;6.22;2.10;;;;;;;;;;143747;583;46010;-83
2021/05/05 00:47:42;;;;;;;8.80;2.25;;;;;;;;;;143746;582;46048;-83
2021/05/05 00:50:11;;;;;;;8.15;2.22;;;;;;;;;;143745;587;46011;-84
2021/05/05 00:52:41;;;;;;;6.50;1.83;;;;;;;;;;143749;608;46012;-84
2021/05/05 00:55:13;;;;;;;8.50;2.67;;;;;;;;;;143749;571;46010;-83
2021/05/05 00:57:42;;;;;;;7.87;2.00;;;;;;;;;;143746;593;46023;-83
2021/05/05 01:00:16;;;;;;;6.72;2.10;;;;;;;;;;143747;601;46010;-83
2021/05/05 01:02:43;;;;;;;6.40;1.70;;;;;;;;;;143748;608;46020;-84
2021/05/05 01:05:11;;;;;;;3.12;1.58;;;;;;;;;;143749;591;46010;-83
2021/05/05 01:07:37;;;;;;;5.15;2.00;;;;;;;;;;143745;589;47023;-83
2021/05/05 01:10:14;;;;;;;8.43;2.90;;;;;;;;;;143747;569;46020;-83
2021/05/05 01:12:42;;;;;;;5.68;1.95;;;;;;;;;;143749;569;46021;-84
2021/05/05 01:15:11;;;;;;;4.22;1.95;;;;;;;;;;143749;575;46010;-83
2021/05/05 01:17:39;;;;;;;5.57;1.80;;;;;;;;;;143746;602;47020;-82
2021/05/05 01:20:07;;;;;;;5.78;2.25;;;;;;;;;;143744;607;46010;-83
2021/05/05 01:22:34;;;;;;;8.13;1.52;;;;;;;;;;143747;581;47020;-83
2021/05/05 01:25:01;;;;;;;6.82;2.22;;;;;;;;;;143750;595;46020;-82
2021/05/05 01:27:27;;;;;;;3.05;1.87;;;;;;;;;;143746;614;46022;-84
2021/05/05 01:29:54;;;;;;;5.07;1.75;;;;;;;;;;143747;587;46010;-83
2021/05/05 01:32:21;;;;;;;9.95;2.95;;;;;;;;;;143744;669;46020;-83
2021/05/05 01:34:48;;;;;;;8.05;2.42;;;;;;;;;;143750;598;46010;-84
2021/05/05 01:37:15;;;;;;;7.45;2.00;;;;;;;;;;143748;583;46020;-83
2021/05/05 01:39:42;;;;;;;6.30;2.53;;;;;;;;;;143746;575;46010;-83
2021/05/05 01:42:10;;;;;;;7.40;2.60;;;;;;;;;;143750;572;46021;-83
2021/05/05 01:44:39;;;;;;;6.90;1.98;;;;;;;;;;143751;691;46018;-82
2021/05/05 01:47:12;;;;;;;9.50;2.30;;;;;;;;;;143747;619;46022;-83
2021/05/05 01:49:47;;;;;;;3.83;1.95;;;;;;;;;;143747;583;46020;-82
2021/05/05 01:52:16;;;;;;;7.32;2.37;;;;;;;;;;143750;607;46020;-83
2021/05/05 01:54:43;;;;;;;15.55;2.90;;;;;;;;;;143750;582;46010;-84
2021/05/05 01:57:42;;;;;;;12.48;2.33;;;;;;;;;;143741;570;47023;-83
2021/05/05 02:00:20;;;;;;;11.85;2.15;;;;;;;;;;143748;650;46020;-82
2021/05/05 02:02:47;;;;;;;8.10;2.90;;;;;;;;;;143749;579;46038;-81
2021/05/05 02:05:14;;;;;;;4.85;1.95;;;;;;;;;;143750;574;46011;-84
2021/05/05 02:07:41;;;;;;;7.93;1.92;;;;;;;;;;143747;595;46048;-84
2021/05/05 02:10:11;;;;;;;7.30;2.55;;;;;;;;;;143749;574;45917;-83
2021/05/05 02:12:39;;;;;;;8.90;2.60;;;;;;;;;;143748;604;46021;-82
2021/05/05 02:15:07;;;;;;;7.32;2.60;;;;;;;;;;143747;583;46020;-83
2021/05/05 02:17:34;;;;;;;9.23;2.67;;;;;;;;;;143746;584;46022;-82
2021/05/05 02:20:00;;;;;;;10.15;2.30;;;;;;;;;;143745;570;47021;-82
2021/05/05 02:22:27;;;;;;;5.90;2.37;;;;;;;;;;143745;642;46020;-82
2021/05/05 02:24:54;;;;;;;7.18;2.28;;;;;;;;;;143752;602;46028;-82
2021/05/05 02:27:20;;;;;;;5.07;2.40;;;;;;;;;;143746;646;47023;-82
2021/05/05 02:29:49;;;;;;;13.50;4.05;;;;;;;;;;143750;586;46010;-83
2021/05/05 02:32:20;;;;;;;12.60;2.65;;;;;;;;;;143748;591;47012;-83
2021/05/05 02:34:52;;;;;;;7.93;2.25;;;;;;;;;;143748;623;47018;-83
2021/05/05 02:37:19;;;;;;;4.47;2.20;;;;;;;;;;143747;571;46020;-81
2021/05/05 02:39:46;;;;;;;8.95;3.65;;;;;;;;;;143747;612;46010;-82
2021/05/05 02:42:19;;;;;;;4.18;2.30;;;;;;;;;;143750;653;46021;-81
2021/05/05 02:44:49;;;;;;;4.00;2.08;;;;;;;;;;143750;569;46010;-82
2021/05/05 02:47:17;;;;;;;7.70;2.37;;;;;;;;;;143742;598;46013;-82
2021/05/05 02:49:44;;;;;;;8.50;2.47;;;;;;;;;;143747;627;46010;-82
2021/05/05 02:52:14;;;;;;;6.00;1.92;;;;;;;;;;143749;579;46020;-81
2021/05/05 02:54:50;;;;;;;6.75;2.37;;;;;;;;;;143748;621;46010;-82
2021/05/05 02:57:17;;;;;;;14.85;2.60;;;;;;;;;;143745;603;47020;-82
2021/05/05 02:59:45;;;;;;;6.07;2.55;;;;;;;;;;143746;566;46010;-82
2021/05/05 03:02:12;;;;;;;5.32;2.28;;;;;;;;;;143749;570;46013;-82
2021/05/05 03:04:45;;;;;;;6.47;2.33;;;;;;;;;;143751;574;46011;-82
2021/05/05 03:07:12;;;;;;;8.93;3.05;;;;;;;;;;143746;574;46022;-82
2021/05/05 03:09:39;;;;;;;5.93;2.25;;;;;;;;;;143748;594;46010;-82
2021/05/05 03:12:07;;;;;;;9.77;2.78;;;;;;;;;;143746;570;46021;-82
2021/05/05 03:14:36;;;;;;;13.55;2.97;;;;;;;;;;143749;575;46010;-82
2021/05/05 03:17:10;;;;;;;11.68;3.22;;;;;;;;;;143748;582;46020;-82
2021/05/05 03:19:38;;;;;;;14.38;3.45;;;;;;;;;;143748;602;46021;-83
2021/05/05 03:22:05;;;;;;;9.13;2.50;;;;;;;;;;143746;585;46020;-83
2021/05/05 03:24:38;;;;;;;11.68;4.55;;;;;;;;;;143749;628;46020;-83
2021/05/05 03:27:10;;;;;;;12.10;2.77;;;;;;;;;;143747;596;46021;-82
2021/05/05 03:29:38;;;;;;;14.25;2.42;;;;;;;;;;143746;587;46010;-82
2021/05/05 03:32:06;;;;;;;5.68;2.50;;;;;;;;;;143748;566;46020;-82
2021/05/05 03:34:33;;;;;;;17.23;2.75;;;;;;;;;;143750;598;46010;-82
2021/05/05 03:37:00;;;;;;;10.63;2.90;;;;;;;;;;143748;564;46022;-83
2021/05/05 03:39:27;;;;;;;12.00;3.00;;;;;;;;;;143746;584;46010;-82
2021/05/05 03:41:57;;;;;;;6.37;3.12;;;;;;;;;;143749;570;46021;-82
2021/05/05 03:44:27;;;;;;;9.40;3.22;;;;;;;;;;143751;628;46010;-84
2021/05/05 03:46:57;;;;;;;8.93;2.60;;;;;;;;;;143750;603;45050;-83
2021/05/05 03:49:24;;;;;;;12.27;3.33;;;;;;;;;;143749;575;46010;-81
2021/05/05 03:51:50;;;;;;;7.60;3.60;;;;;;;;;;143748;575;46020;-81
2021/05/05 03:54:18;;;;;;;9.90;3.20;;;;;;;;;;143753;586;46011;-82
2021/05/05 03:56:44;;;;;;;8.20;3.15;;;;;;;;;;143745;600;47023;-82
2021/05/05 03:59:11;;;;;;;13.25;3.72;;;;;;;;;;143745;615;46020;-83
2021/05/05 04:01:38;;;;;;;13.75;4.65;;;;;;;;;;143746;727;47020;-82
2021/05/05 04:04:05;;;;;;;10.02;4.22;;;;;;;;;;143750;576;46010;-83
2021/05/05 04:06:32;;;;;;;10.63;2.90;;;;;;;;;;143747;573;46022;-82
2021/05/05 04:08:59;;;;;;;10.48;2.92;;;;;;;;;;143747;631;46020;-81
2021/05/05 04:11:26;;;;;;;6.87;2.97;;;;;;;;;;143748;611;46021;-82
2021/05/05 04:13:56;;;;;;;13.15;3.83;;;;;;;;;;143753;585;46020;-81
2021/05/05 04:16:23;;;;;;;9.65;3.78;;;;;;;;;;143751;572;46022;-82
2021/05/05 04:18:50;;;;;;;16.30;3.42;;;;;;;;;;143746;588;46010;-82
2021/05/05 04:21:26;;;;;;;10.85;3.00;;;;;;;;;;143750;591;46020;-81
2021/05/05 04:23:56;;;;;;;14.80;4.03;;;;;;;;;;143747;577;47020;-83
2021/05/05 04:26:23;;;;;;;6.18;3.60;;;;;;;;;;143745;594;46022;-82
2021/05/05 04:28:51;;;;;;;9.20;3.75;;;;;;;;;;143750;611;46020;-83
2021/05/05 04:31:18;;;;;;;8.30;2.97;;;;;;;;;;143748;577;46020;-82
2021/05/05 04:33:48;;;;;;;15.18;4.43;;;;;;;;;;143749;577;46021;-83
2021/05/05 04:36:15;;;;;;;10.10;3.78;;;;;;;;;;143746;599;46022;-82
2021/05/05 04:38:44;;;;;;;16.60;3.42;;;;;;;;;;143746;569;46010;-83
2021/05/05 04:41:11;;;;;;;11.65;3.53;;;;;;;;;;143748;608;47021;-83
2021/05/05 04:43:40;;;;;;;13.52;3.60;;;;;;;;;;143750;629;46010;-80
2021/05/05 04:46:06;;;;;;;10.75;3.53;;;;;;;;;;143744;646;47022;-82
2021/05/05 04:48:34;;;;;;;13.02;3.50;;;;;;;;;;143747;593;46010;-82
2021/05/05 04:51:00;;;;;;;10.15;3.35;;;;;;;;;;143744;609;46020;-81
2021/05/05 04:53:27;;;;;;;9.95;3.90;;;;;;;;;;143749;569;46020;-82
2021/05/05 04:55:54;;;;;;;9.77;4.80;;;;;;;;;;143747;652;47023;-82
2021/05/05 04:58:38;;;;;;;7.78;3.50;;;;;;;;;;143746;564;46010;-83
2021/05/05 05:01:05;;;;;;;9.52;3.45;;;;;;;;;;143751;578;46020;-82
2021/05/05 05:03:32;;;;;;;13.82;4.05;;;;;;;;;;143748;592;47010;-82
2021/05/05 05:05:59;;;;;;;10.02;3.70;;;;;;;;;;143746;652;46022;-83
2021/05/05 05:08:27;;;;;;;12.15;4.03;;;;;;;;;;143747;608;46010;-84
2021/05/05 05:10:55;;;;;;;13.68;4.25;;;;;;;;;;143747;598;47010;-85
2021/05/05 05:13:22;;;;;;;13.88;3.85;;;;;;;;;;143749;585;46012;-84
2021/05/05 05:15:49;;;;;;;11.18;3.72;;;;;;;;;;143739;611;47022;-83
2021/05/05 05:18:15;;;;;;;13.25;4.00;;;;;;;;;;143747;572;46010;-84
2021/05/05 05:20:42;;;;;;;8.43;3.08;;;;;;;;;;143748;585;46012;-84
2021/05/05 05:23:09;;;;;;;20.08;5.00;;;;;;;;;;143749;582;46010;-84
2021/05/05 05:25:36;;;;;;;8.80;3.65;;;;;;;;;;143748;594;46022;-85
2021/05/05 05:28:03;;;;;;;12.45;3.70;;;;;;;;;;143746;596;46020;-84
2021/05/05 05:30:30;;;;;;;12.65;4.03;;;;;;;;;;143746;572;46012;-86
2021/05/05 05:32:57;;;;;;;15.00;4.18;;;;;;;;;;143751;610;46011;-84
2021/05/05 05:35:25;;;;;;;19.08;3.97;;;;;;;;;;143746;575;47022;-84
2021/05/05 05:37:51;;;;;;;16.12;4.28;;;;;;;;;;143745;575;46010;-85
2021/05/05 05:40:18;;;;;;;18.50;4.07;;;;;;;;;;143739;586;47021;-85
2021/05/05 05:42:45;;;;;;;24.55;4.47;;;;;;;;;;143747;614;46020;-83
2021/05/05 05:45:14;;;;;;;12.73;3.30;;;;;;;;;;143744;587;47022;-84
2021/05/05 05:47:46;;;;;;;10.77;3.23;;;;;;;;;;528873;65;3264966;-84
2021/05/05 05:50:14;;;;;;;19.70;4.47;;;;;;;;;;481550;65;110981;-82
2021/05/05 05:52:41;;;;;;;16.90;3.28;;;;;;;;;;143747;625;46012;-82
2021/05/05 05:55:10;;;;;;;16.20;3.33;;;;;;;;;;143747;564;46016;-83
2021/05/05 05:57:37;;;;;;;18.15;3.28;;;;;;;;;;143743;577;46012;-87
2021/05/05 06:00:09;;;;;;;8.23;2.67;;;;;;;;;;143745;633;46018;-85
2021/05/05 06:02:35;;;;;;;8.50;2.67;;;;;;;;;;143747;605;46054;-85
2021/05/05 06:05:02;;;;;;;4.85;2.92;;;;;;;;;;143738;587;47020;-84
2021/05/05 06:07:29;;;;;;;10.80;3.20;;;;;;;;;;143745;580;46012;-86
2021/05/05 06:09:56;;;;;;;7.10;2.67;;;;;;;;;;143746;570;46018;-85
2021/05/05 06:12:22;;;;;;;14.18;4.05;;;;;;;;;;143746;618;46020;-85
2021/05/05 06:14:49;;;;;;;13.07;3.83;;;;;;;;;;143745;563;47020;-86
2021/05/05 06:17:16;;;;;;;15.73;4.28;;;;;;;;;;143745;685;46013;-88
2021/05/05 06:19:42;;;;;;;11.45;3.33;;;;;;;;;;143744;569;47018;-86
2021/05/05 06:22:09;;;;;;;19.42;4.10;;;;;;;;;;143746;600;46012;-86
2021/05/05 06:24:37;;;;;;;14.07;3.17;;;;;;;;;;143746;569;46020;-86
2021/05/05 06:27:06;;;;;;;15.27;4.82;;;;;;;;;;143743;569;46012;-87
2021/05/05 06:29:36;;;;;;;11.00;3.35;;;;;;;;;;143741;578;46018;-86
2021/05/05 06:32:05;;;;;;;15.82;3.75;;;;;;;;;;143748;564;46013;-85
2021/05/05 06:34:32;;;;;;;13.27;3.72;;;;;;;;;;143746;670;46020;-87
2021/05/05 06:37:00;;;;;;;11.90;3.35;;;;;;;;;;143744;565;46012;-85
2021/05/05 06:39:27;;;;;;;11.52;3.80;;;;;;;;;;143746;575;46019;-87
2021/05/05 06:41:54;;;;;;;10.82;2.95;;;;;;;;;;143747;610;46012;-86
2021/05/05 06:44:20;;;;;;;19.45;4.18;;;;;;;;;;143744;563;46020;-84
2021/05/05 06:46:49;;;;;;;13.65;4.30;;;;;;;;;;143745;575;46023;-84
2021/05/05 06:49:16;;;;;;;9.18;3.78;;;;;;;;;;143747;613;46041;-82
2021/05/05 06:51:42;;;;;;;8.02;3.40;;;;;;;;;;143748;624;46012;-84
2021/05/05 06:54:09;;;;;;;9.57;4.00;;;;;;;;;;143742;586;46020;-82
2021/05/05 06:56:36;;;;;;;10.73;3.45;;;;;;;;;;143744;585;46012;-84
2021/05/05 06:59:03;;;;;;;13.75;4.45;;;;;;;;;;143745;612;47018;-84
2021/05/05 07:01:30;;;;;;;22.35;3.55;;;;;;;;;;143747;569;46013;-84
2021/05/05 07:03:57;;;;;;;11.80;3.90;;;;;;;;;;143745;595;46021;-83
2021/05/05 07:06:24;;;;;;;16.58;3.75;;;;;;;;;;143743;573;47012;-83
2021/05/05 07:08:56;;;;;;;14.38;2.87;;;;;;;;;;143746;588;47018;-84
2021/05/05 07:11:23;;;;;;;9.65;3.25;;;;;;;;;;143751;583;46022;-84
2021/05/05 07:13:50;;;;;;;11.90;3.53;;;;;;;;;;143747;664;46016;-85
2021/05/05 07:16:17;;;;;;;10.68;3.10;;;;;;;;;;143743;577;46013;-84
2021/05/05 07:18:43;;;;;;;6.47;3.30;;;;;;;;;;143742;569;46018;-83
2021/05/05 07:21:11;;;;;;;9.60;2.70;;;;;;;;;;143746;571;46048;-82
2021/05/05 07:23:38;;;;;;;9.43;2.95;;;;;;;;;;143745;581;47020;-83
2021/05/05 07:26:05;;;;;;;9.60;3.30;;;;;;;;;;143744;605;46023;-84
2021/05/05 07:28:32;;;;;;;20.88;3.03;;;;;;;;;;143747;574;46014;-84
2021/05/05 07:30:59;;;;;;;12.93;3.78;;;;;;;;;;143748;606;46021;-84
2021/05/05 07:33:36;;;;;;;8.20;3.30;;;;;;;;;;143745;686;47021;-85
2021/05/05 07:36:03;;;;;;;10.20;3.37;;;;;;;;;;143744;566;46022;-83
2021/05/05 07:38:59;;;;;;;20.55;3.87;;;;;;;;;;143746;595;46019;-82
2021/05/05 07:42:08;;;;;;;14.05;3.62;;;;;;;;;;143749;570;46012;-82
2021/05/05 07:47:20;;;;;;;16.73;3.85;;;;;;;;;;143744;574;46023;-84
2021/05/05 07:49:49;;;;;;;11.02;4.07;;;;;;;;;;143748;570;46018;-83
2021/05/05 07:52:20;;;;;;;11.25;4.10;;;;;;;;;;143748;605;46012;-82
2021/05/05 07:54:47;;;;;;;13.57;2.97;;;;;;;;;;143746;569;46021;-83
2021/05/05 07:57:14;;;;;;;7.55;2.53;;;;;;;;;;143744;630;46012;-82
2021/05/05 07:59:41;;;;;;;12.10;3.75;;;;;;;;;;143743;569;47018;-83
2021/05/05 08:02:08;;;;;;;14.55;3.15;;;;;;;;;;143747;565;46013;-83
2021/05/05 08:04:34;;;;;;;8.30;2.60;;;;;;;;;;143744;606;47020;-83
2021/05/05 08:07:01;;;;;;;7.93;2.72;;;;;;;;;;143743;597;46012;-85
2021/05/05 08:09:28;;;;;;;10.27;3.17;;;;;;;;;;143741;569;46019;-83
2021/05/05 08:11:54;;;;;;;8.23;3.58;;;;;;;;;;143747;616;46012;-84
2021/05/05 08:14:22;;;;;;;12.73;2.90;;;;;;;;;;143744;576;47020;-83
2021/05/05 08:16:48;;;;;;;5.35;2.58;;;;;;;;;;143745;565;46023;-84
2021/05/05 08:19:15;;;;;;;16.30;2.67;;;;;;;;;;143745;575;46018;-83
2021/05/05 08:21:42;;;;;;;15.85;3.22;;;;;;;;;;143747;565;46020;-83
2021/05/05 08:24:10;;;;;;;24.98;3.47;;;;;;;;;;143744;573;46020;-83
2021/05/05 08:26:50;;;;;;;9.27;2.95;;;;;;;;;;143744;593;46012;-85
2021/05/05 08:29:17;;;;;;;10.32;3.87;;;;;;;;;;143746;593;46045;-86
2021/05/05 08:31:44;;;;;;;8.90;3.08;;;;;;;;;;143746;614;47013;-82
2021/05/05 08:34:11;;;;;;;15.13;2.85;;;;;;;;;;143739;569;46020;-83
2021/05/05 08:36:38;;;;;;;10.93;3.25;;;;;;;;;;143743;739;46012;-84
2021/05/05 08:39:05;;;;;;;7.30;2.53;;;;;;;;;;143749;589;45019;-84
2021/05/05 08:41:32;;;;;;;7.28;3.03;;;;;;;;;;143747;583;46012;-82
2021/05/05 08:44:00;;;;;;;9.43;3.15;;;;;;;;;;143744;570;46018;-83
2021/05/05 08:46:27;;;;;;;8.48;2.78;;;;;;;;;;143745;587;46013;-83
2021/05/05 08:48:54;;;;;;;13.48;2.97;;;;;;;;;;143749;703;46018;-83
2021/05/05 08:51:21;;;;;;;5.20;2.85;;;;;;;;;;143748;584;46012;-84
2021/05/05 08:53:51;;;;;;;10.13;3.10;;;;;;;;;;143747;570;47020;-83
2021/05/05 08:56:19;;;;;;;9.45;2.53;;;;;;;;;;143746;587;46014;-83
2021/05/05 08:58:48;;;;;;;7.50;2.30;;;;;;;;;;143739;577;46018;-84
2021/05/05 09:01:33;;;;;;;6.60;2.58;;;;;;;;;;143752;572;46012;-83
2021/05/05 09:04:03;;;;;;;10.75;2.90;;;;;;;;;;143748;611;46014;-82
2021/05/05 09:06:52;;;;;;;10.50;2.75;;;;;;;;;;143746;583;46012;-83
2021/05/05 09:09:41;;;;;;;22.58;3.30;;;;;;;;;;143742;583;47019;-82
2021/05/05 09:12:31;;;;;;;5.65;2.60;;;;;;;;;;143752;621;46031;-84
2021/05/05 09:15:29;;;;;;;;;;;;;;;;;;;;;
2021/05/05 09:17:59;;;;;;;24.33;2.90;;;;;;;;;;143748;582;46012;-84
2021/05/05 09:20:32;;;;;;;7.47;2.62;;;;;;;;;;143746;602;47018;-84
2021/05/05 09:23:00;;;;;;;11.60;2.55;;;;;;;;;;143748;566;46021;-84
2021/05/05 09:25:45;;;;;;;7.15;2.28;;;;;;;;;;143742;564;46021;-83
2021/05/05 09:28:19;;;;;;;10.30;2.62;;;;;;;;;;143744;618;46012;-83
2021/05/05 09:31:24;;;;;;;11.00;2.30;;;;;;;;;;143746;604;46019;-83
2021/05/05 09:34:07;;;;;;;8.70;2.75;;;;;;;;;;143749;596;46012;-82
2021/05/05 09:36:38;;;;;;;5.87;2.03;;;;;;;;;;143745;597;47020;-83
2021/05/05 09:39:08;;;;;;;7.03;2.30;;;;;;;;;;143745;680;46022;-82
2021/05/05 09:41:45;;;;;;;12.13;2.72;;;;;;;;;;143747;583;46018;-83
2021/05/05 09:44:11;;;;;;;7.80;2.15;;;;;;;;;;143746;620;46021;-83
2021/05/05 09:46:46;;;;;;;9.18;2.95;;;;;;;;;;143747;587;46016;-82
2021/05/05 09:49:41;;;;;;;14.25;3.05;;;;;;;;;;143742;585;46012;-83
2021/05/05 09:52:15;;;;;;;11.88;3.00;;;;;;;;;;143743;585;46019;-82
2021/05/05 09:55:04;;;;;;;6.05;2.05;;;;;;;;;;143749;580;46012;-84
2021/05/05 09:57:37;;;;;;;8.80;2.22;;;;;;;;;;143747;598;46022;-83
2021/05/05 10:00:19;;;;;;;12.57;2.30;;;;;;;;;;143745;589;46013;-83
2021/05/05 10:03:01;;;;;;;6.90;2.67;;;;;;;;;;143745;602;46018;-82
2021/05/05 10:05:34;;;;;;;9.55;2.58;;;;;;;;;;143748;569;46012;-83
2021/05/05 10:08:06;;;;;;;9.45;2.20;;;;;;;;;;143746;572;46020;-83
2021/05/05 10:10:43;;;;;;;6.28;1.98;;;;;;;;;;143744;594;46012;-82
2021/05/05 10:13:13;;;;;;;6.37;1.85;;;;;;;;;;143746;577;46018;-83
2021/05/05 10:15:42;;;;;;;4.03;1.90;;;;;;;;;;143747;585;46013;-84
2021/05/05 10:18:11;;;;;;;5.60;1.90;;;;;;;;;;143745;579;46020;-83
2021/05/05 10:20:38;;;;;;;4.30;1.80;;;;;;;;;;143745;634;46022;-84
2021/05/05 10:23:05;;;;;;;4.50;1.70;;;;;;;;;;143745;586;46015;-83
2021/05/05 10:25:33;;;;;;;6.07;1.60;;;;;;;;;;143748;570;46012;-83
2021/05/05 10:27:59;;;;;;;5.28;2.10;;;;;;;;;;143743;571;47018;-83
2021/05/05 10:30:33;;;;;;;12.10;2.20;;;;;;;;;;143746;575;46013;-83
2021/05/05 10:33:00;;;;;;;8.00;1.85;;;;;;;;;;143746;598;46018;-83
2021/05/05 10:35:27;;;;;;;6.03;1.67;;;;;;;;;;143748;593;46022;-84
2021/05/05 10:37:57;;;;;;;13.68;2.20;;;;;;;;;;143744;570;47020;-82
2021/05/05 10:40:32;;;;;;;5.20;2.03;;;;;;;;;;143744;569;46014;-84
2021/05/05 10:43:07;;;;;;;15.18;2.67;;;;;;;;;;143744;612;46018;-83
2021/05/05 10:45:45;;;;;;;8.20;2.10;;;;;;;;;;143747;604;46012;-83
2021/05/05 10:48:13;;;;;;;6.60;1.98;;;;;;;;;;143744;617;47020;-82
2021/05/05 10:51:04;;;;;;;6.70;2.10;;;;;;;;;;143745;569;46012;-82
2021/05/05 10:53:59;;;;;;;5.32;2.42;;;;;;;;;;143744;615;47019;-81
2021/05/05 10:56:30;;;;;;;10.27;2.03;;;;;;;;;;143746;650;46014;-83
2021/05/05 10:59:07;;;;;;;7.80;2.22;;;;;;;;;;143745;582;46020;-83
2021/05/05 11:01:51;;;;;;;7.47;2.95;;;;;;;;;;143743;666;46012;-83
2021/05/05 11:04:18;;;;;;;9.55;1.80;;;;;;;;;;143747;601;46018;-82
2021/05/05 11:06:47;;;;;;;9.13;2.25;;;;;;;;;;143750;564;46013;-83
2021/05/05 11:09:40;;;;;;;6.87;1.83;;;;;;;;;;143747;581;46021;-83
2021/05/05 11:12:27;;;;;;;5.90;2.25;;;;;;;;;;143744;570;46012;-84
2021/05/05 11:14:55;;;;;;;9.48;2.20;;;;;;;;;;143747;583;46019;-83
2021/05/05 11:17:40;;;;;;;9.15;2.08;;;;;;;;;;143746;623;47022;-83
2021/05/05 11:20:08;;;;;;;6.65;1.80;;;;;;;;;;143746;640;46018;-83
2021/05/05 11:22:52;;;;;;;8.63;2.60;;;;;;;;;;143743;619;46920;-84
2021/05/05 11:25:21;;;;;;;5.28;1.60;;;;;;;;;;143734;585;46018;-84
2021/05/05 11:27:51;;;;;;;8.48;1.80;;;;;;;;;;143736;670;46022;-83
2021/05/05 11:30:39;;;;;;;7.90;2.70;;;;;;;;;;143731;627;47020;-85
2021/05/05 11:33:08;;;;;;;4.97;1.90;;;;;;;;;;143732;595;46012;-84
2021/05/05 11:35:35;;;;;;;5.95;1.92;;;;;;;;;;143735;581;46036;-85
2021/05/05 11:38:19;;;;;;;3.62;1.62;;;;;;;;;;143735;615;46013;-85
2021/05/05 11:41:05;;;;;;;5.70;1.58;;;;;;;;;;143733;616;46018;-83
2021/05/05 11:43:34;;;;;;;7.07;1.70;;;;;;;;;;143732;567;46012;-83
2021/05/05 11:46:03;;;;;;;6.50;2.08;;;;;;;;;;143734;591;46019;-83
2021/05/05 11:48:37;;;;;;;10.30;1.87;;;;;;;;;;143735;571;46012;-82
2021/05/05 11:51:24;;;;;;;5.07;1.70;;;;;;;;;;143732;628;46014;-83
2021/05/05 11:53:55;;;;;;;9.15;2.00;;;;;;;;;;143732;587;46012;-83
2021/05/05 11:56:26;;;;;;;3.90;1.67;;;;;;;;;;143735;569;46018;-82
2021/05/05 11:58:58;;;;;;;7.05;1.83;;;;;;;;;;143736;602;46041;-83
2021/05/05 12:02:02;;;;;;;7.78;1.75;;;;;;;;;;143734;598;46030;-84
2021/05/05 12:04:36;;;;;;;5.32;1.73;;;;;;;;;;143735;578;46012;-84
2021/05/05 12:07:02;;;;;;;5.68;1.50;;;;;;;;;;143736;573;46018;-83
2021/05/05 12:09:32;;;;;;;5.35;1.80;;;;;;;;;;143736;565;46022;-83
2021/05/05 12:12:36;;;;;;;4.82;1.85;;;;;;;;;;143734;575;46018;-83
2021/05/05 12:15:06;;;;;;;5.62;1.85;;;;;;;;;;143734;615;46919;-82
2021/05/05 12:17:41;;;;;;;15.05;2.00;;;;;;;;;;143735;629;46018;-83
2021/05/05 12:20:19;;;;;;;8.10;1.73;;;;;;;;;;143737;612;46012;-84
2021/05/05 12:22:56;;;;;;;12.13;2.03;;;;;;;;;;143733;564;46019;-82
2021/05/05 12:25:26;;;;;;;8.45;1.75;;;;;;;;;;143734;576;46014;-83
2021/05/05 12:28:02;;;;;;;5.72;1.83;;;;;;;;;;143735;581;46018;-83
2021/05/05 12:30:54;;;;;;;4.25;1.98;;;;;;;;;;143733;603;46013;-83
2021/05/05 12:33:41;;;;;;;9.80;1.77;;;;;;;;;;143732;585;46018;-82
2021/05/05 12:36:11;;;;;;;6.50;2.12;;;;;;;;;;143732;564;46012;-83
2021/05/05 12:38:42;;;;;;;4.80;1.90;;;;;;;;;;143735;607;47018;-85
2021/05/05 12:41:17;;;;;;;8.10;2.35;;;;;;;;;;143736;583;46012;-85
2021/05/05 12:44:20;;;;;;;;;;;;;;;;;;;;;
2021/05/05 12:46:59;;;;;;;5.12;2.40;;;;;;;;;;212047;65;48308;-84
2021/05/05 12:49:36;;;;;;;8.32;2.03;;;;;;;;;;143735;585;46020;-83
2021/05/05 12:52:09;;;;;;;3.60;1.77;;;;;;;;;;143736;569;46021;-83
2021/05/05 12:54:45;;;;;;;10.00;2.20;;;;;;;;;;143732;575;47020;-83
2021/05/05 12:57:19;;;;;;;4.93;2.05;;;;;;;;;;143733;584;46012;-84
2021/05/05 12:59:53;;;;;;;4.55;1.77;;;;;;;;;;143733;589;46015;-82
2021/05/05 13:02:32;;;;;;;5.72;2.05;;;;;;;;;;367488;65;1967883;-82
2021/05/05 13:05:06;;;;;;;8.18;2.62;;;;;;;;;;143731;569;47022;-84
2021/05/05 13:07:42;;;;;;;8.32;1.80;;;;;;;;;;143733;578;46013;-84
2021/05/05 13:10:16;;;;;;;5.93;1.83;;;;;;;;;;143735;608;46018;-82
2021/05/05 13:13:03;;;;;;;8.27;1.87;;;;;;;;;;143736;628;46042;-83
2021/05/05 13:15:43;;;;;;;3.97;1.67;;;;;;;;;;143730;584;47012;-83
2021/05/05 13:33:21;;;;;;;4.55;1.75;;;;;;;;;;143736;627;46018;-82
2021/05/05 13:35:58;;;;;;;8.52;1.95;;;;;;;;;;143735;648;46023;-82
2021/05/05 13:38:28;;;;;;;4.28;1.90;;;;;;;;;;143735;612;46023;-83
2021/05/05 13:41:03;;;;;;;5.43;1.95;;;;;;;;;;143735;608;46012;-82
2021/05/05 13:43:48;;;;;;;3.70;1.77;;;;;;;;;;143735;579;46019;-82
2021/05/05 13:49:05;;;;;;;6.35;2.05;;;;;;;;;;143734;626;46028;-82
2021/05/05 13:51:31;;;;;;;5.45;2.10;;;;;;;;;;143733;569;46013;-87
2021/05/05 13:53:59;;;;;;;6.28;1.83;;;;;;;;;;143735;583;46018;-83
2021/05/05 13:56:29;;;;;;;6.22;2.25;;;;;;;;;;143735;572;46012;-83
2021/05/05 13:58:57;;;;;;;10.35;2.20;;;;;;;;;;143735;588;46020;-82
2021/05/05 14:01:26;;;;;;;5.50;1.65;;;;;;;;;;143734;601;46012;-83
2021/05/05 14:03:53;;;;;;;12.27;2.50;;;;;;;;;;143737;579;46014;-83
2021/05/05 14:06:21;;;;;;;8.45;2.10;;;;;;;;;;143736;570;46053;-82
2021/05/05 14:08:49;;;;;;;9.00;2.45;;;;;;;;;;365710;65;510179;-83
2021/05/05 14:11:16;;;;;;;6.37;2.42;;;;;;;;;;143735;643;46010;-83
2021/05/05 14:13:46;;;;;;;11.57;2.00;;;;;;;;;;143736;604;46016;-83
2021/05/05 14:16:15;;;;;;;11.98;2.12;;;;;;;;;;143737;603;46010;-83
2021/05/05 14:18:42;;;;;;;7.00;2.22;;;;;;;;;;143734;593;47020;-83
2021/05/05 14:21:13;;;;;;;9.35;2.62;;;;;;;;;;143738;637;45023;-82
2021/05/05 14:23:39;;;;;;;8.98;2.50;;;;;;;;;;143736;623;46018;-85
2021/05/05 14:26:07;;;;;;;6.43;2.25;;;;;;;;;;143737;601;46022;-82
2021/05/05 14:28:43;;;;;;;11.63;2.20;;;;;;;;;;143736;570;46018;-83
2021/05/05 14:31:11;;;;;;;5.65;2.12;;;;;;;;;;143732;571;46918;-82
2021/05/05 14:33:39;;;;;;;10.40;2.05;;;;;;;;;;143736;666;46018;-83
2021/05/05 14:36:07;;;;;;;5.68;2.30;;;;;;;;;;143736;570;46010;-82
2021/05/05 14:38:38;;;;;;;11.55;2.22;;;;;;;;;;143734;576;47021;-82
2021/05/05 14:41:10;;;;;;;6.15;2.17;;;;;;;;;;143736;665;45031;-82
2021/05/05 14:43:57;;;;;;;8.60;2.03;;;;;;;;;;143739;569;46019;-83
2021/05/05 14:49:00;;;;;;;14.65;2.60;;;;;;;;;;143736;622;46018;-83
2021/05/05 14:51:27;;;;;;;6.60;2.47;;;;;;;;;;143733;586;46011;-82
2021/05/05 14:53:53;;;;;;;10.23;2.15;;;;;;;;;;143736;602;46018;-83
2021/05/05 14:56:21;;;;;;;6.72;2.42;;;;;;;;;;143737;571;46010;-82
2021/05/05 14:58:59;;;;;;;10.48;2.37;;;;;;;;;;143734;572;46019;-83
2021/05/05 15:01:26;;;;;;;11.80;2.60;;;;;;;;;;143735;591;46022;-82
2021/05/05 15:03:53;;;;;;;8.95;2.45;;;;;;;;;;143737;569;46018;-82
2021/05/05 15:06:26;;;;;;;6.45;2.55;;;;;;;;;;143738;593;46010;-83
2021/05/05 15:09:22;;;;;;;10.45;2.67;;;;;;;;;;143734;583;47018;-83
2021/05/05 15:12:10;;;;;;;6.32;2.17;;;;;;;;;;143735;578;46010;-82
2021/05/05 15:18:13;;;;;;;8.70;2.28;;;;;;;;;;143737;578;46044;-83
2021/05/05 15:34:25;;;;;;;6.00;2.35;;;;;;;;;;143737;578;45031;-83
2021/05/05 15:36:54;;;;;;;8.38;2.17;;;;;;;;;;143737;570;46018;-83
2021/05/05 15:39:32;;;;;;;6.20;2.40;;;;;;;;;;143736;591;46010;-83
2021/05/05 15:42:02;;;;;;;8.13;2.45;;;;;;;;;;143737;607;46019;-82
2021/05/05 15:44:35;;;;;;;6.70;2.70;;;;;;;;;;143733;673;46012;-83
2021/05/05 15:47:15;;;;;;;7.53;2.60;;;;;;;;;;143734;574;46018;-83